createdAt,value
2018-12-08T00:01:12.466Z,8.92
2018-12-08T00:03:46.130Z,8.96
2018-12-08T00:06:16.660Z,8.98
2018-12-08T00:08:47.357Z,8.96
2018-12-08T00:11:18.451Z,8.91
2018-12-08T00:13:48.584Z,8.87
2018-12-08T00:16:25.300Z,8.84
2018-12-08T00:18:56.360Z,8.82
2018-12-08T00:21:27.556Z,8.83
2018-12-08T00:24:00.511Z,8.81
2018-12-08T00:26:31.126Z,8.81
2018-12-08T00:29:02.575Z,8.78
2018-12-08T00:31:45.847Z,8.80
2018-12-08T00:34:18.600Z,8.76
2018-12-08T00:36:49.565Z,8.73
2018-12-08T00:39:22.503Z,8.67
2018-12-08T00:41:56.548Z,8.62
2018-12-08T00:44:29.606Z,8.58
2018-12-08T00:47:06.525Z,8.55
2018-12-08T00:49:42.473Z,8.51
2018-12-08T00:52:13.747Z,8.43
2018-12-08T00:54:46.744Z,8.40
2018-12-08T00:57:17.281Z,8.35
2018-12-08T00:59:47.817Z,8.34
2018-12-08T01:02:18.794Z,8.32
2018-12-08T01:04:48.777Z,8.30
2018-12-08T01:07:19.612Z,8.28
2018-12-08T01:09:49.668Z,8.28
2018-12-08T01:12:20.745Z,8.25
2018-12-08T01:14:54.471Z,8.21
2018-12-08T01:17:24.856Z,8.22
2018-12-08T01:19:55.687Z,8.21
2018-12-08T01:22:26.774Z,8.21
2018-12-08T01:24:59.864Z,8.21
2018-12-08T01:27:37.533Z,8.16
2018-12-08T01:30:08.048Z,8.12
2018-12-08T01:32:46.638Z,8.18
2018-12-08T01:35:17.875Z,8.17
2018-12-08T01:37:48.758Z,8.22
2018-12-08T01:40:21.740Z,8.25
2018-12-08T01:42:56.695Z,8.29
2018-12-08T01:45:27.045Z,8.25
2018-12-08T01:47:58.391Z,8.32
2018-12-08T01:50:28.919Z,8.44
2018-12-08T01:52:58.947Z,8.88
2018-12-08T01:55:34.612Z,8.95
2018-12-08T01:58:06.253Z,8.87
2018-12-08T02:00:38.228Z,8.94
2018-12-08T02:03:13.383Z,8.87
2018-12-08T02:05:44.029Z,8.79
2018-12-08T02:08:14.817Z,8.82
2018-12-08T02:10:45.301Z,8.81
2018-12-08T02:13:15.930Z,8.68
2018-12-08T02:15:46.558Z,8.70
2018-12-08T02:18:17.009Z,8.56
2018-12-08T02:20:47.081Z,8.43
2018-12-08T02:23:18.099Z,8.35
2018-12-08T02:25:50.218Z,8.25
2018-12-08T02:28:23.013Z,8.23
2018-12-08T02:30:53.461Z,8.37
2018-12-08T02:33:24.144Z,8.32
2018-12-08T02:35:55.050Z,8.19
2018-12-08T02:38:25.207Z,8.23
2018-12-08T02:40:56.099Z,8.28
2018-12-08T02:43:27.147Z,8.39
2018-12-08T02:45:58.119Z,8.25
2018-12-08T02:48:29.635Z,8.24
2018-12-08T02:51:00.204Z,8.27
2018-12-08T02:53:37.956Z,8.25
2018-12-08T02:56:10.348Z,8.19
2018-12-08T02:58:41.314Z,8.18
2018-12-08T03:01:20.115Z,8.29
2018-12-08T03:03:51.204Z,8.37
2018-12-08T03:06:21.267Z,8.33
2018-12-08T03:08:55.104Z,8.38
2018-12-08T03:11:25.231Z,8.46
2018-12-08T03:13:56.295Z,8.50
2018-12-08T03:16:29.296Z,8.46
2018-12-08T03:19:00.112Z,8.49
2018-12-08T03:21:31.161Z,8.35
2018-12-08T03:24:01.161Z,8.39
2018-12-08T03:26:31.145Z,8.38
2018-12-08T03:29:03.288Z,8.44
2018-12-08T03:31:33.279Z,8.36
2018-12-08T03:34:04.194Z,8.39
2018-12-08T03:36:34.297Z,8.38
2018-12-08T03:39:07.974Z,8.41
2018-12-08T03:41:38.360Z,8.27
2018-12-08T03:44:10.289Z,8.18
2018-12-08T03:46:40.969Z,8.03
2018-12-08T03:49:12.250Z,8.04
2018-12-08T03:51:42.654Z,7.95
2018-12-08T03:54:19.133Z,7.86
2018-12-08T03:56:50.353Z,7.92
2018-12-08T03:59:24.196Z,7.90
2018-12-08T04:01:54.496Z,7.78
2018-12-08T04:04:25.383Z,7.72
2018-12-08T04:06:56.395Z,7.97
2018-12-08T04:09:26.419Z,7.94
2018-12-08T04:11:57.618Z,7.97
2018-12-08T04:14:30.601Z,7.94
2018-12-08T04:17:00.639Z,7.84
2018-12-08T04:19:31.642Z,7.97
2018-12-08T04:22:02.517Z,7.94
2018-12-08T04:24:32.513Z,8.04
2018-12-08T04:27:03.590Z,8.16
2018-12-08T04:29:37.324Z,8.13
2018-12-08T04:32:07.705Z,8.09
2018-12-08T04:34:38.645Z,8.03
2018-12-08T04:37:12.558Z,7.97
2018-12-08T04:39:42.630Z,7.89
2018-12-08T04:42:16.356Z,8.04
2018-12-08T04:44:47.533Z,8.04
2018-12-08T04:47:17.715Z,7.91
2018-12-08T04:49:48.676Z,7.89
2018-12-08T04:52:20.182Z,7.77
2018-12-08T04:54:50.609Z,7.74
2018-12-08T04:57:21.572Z,7.62
2018-12-08T04:59:51.725Z,7.63
2018-12-08T05:02:22.867Z,7.55
2018-12-08T05:04:53.599Z,7.54
2018-12-08T05:07:24.766Z,7.55
2018-12-08T05:09:56.716Z,7.64
2018-12-08T05:12:28.667Z,7.44
2018-12-08T05:14:58.763Z,7.35
2018-12-08T05:17:29.695Z,7.38
2018-12-08T05:20:00.743Z,7.38
2018-12-08T05:22:30.841Z,7.30
2018-12-08T05:25:01.887Z,7.33
2018-12-08T05:27:34.883Z,7.38
2018-12-08T05:30:06.572Z,7.41
2018-12-08T05:32:38.251Z,7.42
2018-12-08T05:35:10.645Z,7.45
2018-12-08T05:37:40.825Z,7.46
2018-12-08T05:40:14.627Z,7.34
2018-12-08T05:42:45.787Z,7.35
2018-12-08T05:45:15.802Z,7.20
2018-12-08T05:47:46.801Z,7.21
2018-12-08T05:50:17.969Z,7.35
2018-12-08T05:52:50.850Z,7.30
2018-12-08T05:55:21.815Z,7.28
2018-12-08T05:57:52.957Z,7.30
2018-12-08T06:00:24.057Z,7.20
2018-12-08T06:02:54.017Z,7.14
2018-12-08T06:05:24.934Z,7.08
2018-12-08T06:07:55.959Z,6.98
2018-12-08T06:10:27.041Z,6.94
2018-12-08T06:12:58.570Z,6.88
2018-12-08T06:15:31.039Z,6.84
2018-12-08T06:18:02.075Z,6.73
2018-12-08T06:20:34.688Z,6.46
2018-12-08T06:23:06.005Z,6.35
2018-12-08T06:25:39.382Z,6.17
2018-12-08T06:28:18.218Z,6.12
2018-12-08T06:30:56.178Z,5.92
2018-12-08T06:33:27.020Z,5.98
2018-12-08T06:35:57.034Z,5.92
2018-12-08T06:38:27.051Z,5.84
2018-12-08T06:40:58.146Z,5.70
2018-12-08T06:43:32.099Z,5.71
2018-12-08T06:46:03.216Z,5.73
2018-12-08T06:48:33.278Z,5.62
2018-12-08T06:51:04.505Z,5.55
2018-12-08T06:53:34.906Z,5.72
2018-12-08T06:56:06.458Z,5.62
2018-12-08T06:58:38.250Z,5.56
2018-12-08T07:01:10.417Z,5.58
2018-12-08T07:03:41.299Z,5.54
2018-12-08T07:06:12.208Z,5.49
2018-12-08T07:08:42.222Z,5.53
2018-12-08T07:11:13.314Z,5.57
2018-12-08T07:13:44.575Z,5.50
2018-12-08T07:16:15.420Z,5.51
2018-12-08T07:18:46.342Z,5.57
2018-12-08T07:21:16.341Z,5.55
2018-12-08T07:23:46.829Z,5.74
2018-12-08T07:26:17.436Z,5.65
2018-12-08T07:28:47.575Z,5.60
2018-12-08T07:31:18.386Z,5.61
2018-12-08T07:33:48.412Z,5.66
2018-12-08T07:36:20.224Z,5.68
2018-12-08T07:38:52.463Z,5.72
2018-12-08T07:41:26.538Z,5.67
2018-12-08T07:43:57.521Z,5.71
2018-12-08T07:46:30.464Z,5.75
2018-12-08T07:49:04.330Z,5.71
2018-12-08T07:51:34.493Z,5.78
2018-12-08T07:54:05.262Z,5.73
2018-12-08T07:56:35.642Z,5.74
2018-12-08T07:59:13.420Z,5.89
2018-12-08T08:01:44.538Z,5.91
2018-12-08T08:04:17.509Z,5.87
2018-12-08T08:06:48.540Z,5.83
2018-12-08T08:09:18.643Z,5.81
2018-12-08T08:11:49.583Z,5.78
2018-12-08T08:14:20.607Z,5.86
2018-12-08T08:16:51.464Z,5.89
2018-12-08T08:19:23.742Z,5.83
2018-12-08T08:21:55.750Z,5.95
2018-12-08T08:24:29.698Z,6.03
2018-12-08T08:27:03.696Z,6.00
2018-12-08T08:29:34.940Z,5.96
2018-12-08T08:32:04.959Z,6.12
2018-12-08T08:34:35.209Z,6.03
2018-12-08T08:37:05.639Z,6.02
2018-12-08T08:39:35.639Z,6.16
2018-12-08T08:42:06.735Z,6.13
2018-12-08T08:44:38.716Z,6.13
2018-12-08T08:47:09.013Z,6.13
2018-12-08T08:49:38.989Z,6.24
2018-12-08T08:52:10.849Z,6.27
2018-12-08T08:54:47.552Z,6.29
2018-12-08T08:57:18.905Z,6.33
2018-12-08T08:59:50.225Z,6.37
2018-12-08T09:02:20.778Z,6.40
2018-12-08T09:04:51.453Z,6.46
2018-12-08T09:07:22.216Z,6.63
2018-12-08T09:09:52.707Z,6.63
2018-12-08T09:12:23.542Z,6.74
2018-12-08T09:14:59.784Z,6.78
2018-12-08T09:17:30.840Z,6.86
2018-12-08T09:20:01.911Z,6.84
2018-12-08T09:22:37.890Z,6.85
2018-12-08T09:25:10.736Z,6.93
2018-12-08T09:27:40.925Z,6.97
2018-12-08T09:30:12.022Z,6.99
2018-12-08T09:32:43.863Z,7.03
2018-12-08T09:35:15.840Z,7.18
2018-12-08T09:37:46.378Z,7.21
2018-12-08T09:40:16.955Z,7.14
2018-12-08T09:42:47.332Z,7.17
2018-12-08T09:45:18.021Z,7.29
2018-12-08T09:47:54.846Z,7.37
2018-12-08T09:50:27.785Z,7.46
2018-12-08T09:53:13.088Z,7.40
2018-12-08T09:55:45.051Z,7.46
2018-12-08T09:58:17.106Z,7.55
2018-12-08T10:00:49.188Z,7.62
2018-12-08T10:03:20.142Z,7.60
2018-12-08T10:05:50.440Z,7.65
2018-12-08T10:08:21.092Z,7.75
2018-12-08T10:10:53.067Z,7.91
2018-12-08T10:13:23.316Z,7.92
2018-12-08T10:15:56.190Z,7.94
2018-12-08T10:18:30.444Z,7.99
2018-12-08T10:21:01.279Z,7.94
2018-12-08T10:23:32.231Z,8.03
2018-12-08T10:26:03.196Z,8.04
2018-12-08T10:28:34.292Z,8.20
2018-12-08T10:31:07.453Z,8.10
2018-12-08T10:33:37.661Z,8.08
2018-12-08T10:36:10.637Z,8.14
2018-12-08T10:38:41.110Z,8.15
2018-12-08T10:41:14.207Z,8.13
2018-12-08T10:43:44.361Z,8.36
2018-12-08T10:46:16.427Z,8.39
2018-12-08T10:48:47.354Z,8.33
2018-12-08T10:51:20.519Z,8.39
2018-12-08T10:53:51.252Z,8.36
2018-12-08T10:56:21.297Z,8.43
2018-12-08T10:58:52.423Z,8.48
2018-12-08T11:01:29.525Z,8.50
2018-12-08T11:04:00.177Z,8.43
2018-12-08T11:06:32.522Z,8.43
2018-12-08T11:09:07.847Z,8.41
2018-12-08T11:11:38.508Z,8.33
2018-12-08T11:14:13.310Z,8.40
2018-12-08T11:16:44.780Z,8.33
2018-12-08T11:19:17.649Z,8.16
2018-12-08T11:21:54.286Z,8.09
2018-12-08T11:24:25.865Z,8.04
2018-12-08T11:26:56.493Z,8.02
2018-12-08T11:29:27.524Z,8.07
2018-12-08T11:31:57.768Z,8.09
2018-12-08T11:34:28.627Z,8.14
2018-12-08T11:36:59.548Z,8.10
2018-12-08T11:39:30.450Z,8.00
2018-12-08T11:42:00.911Z,8.04
2018-12-08T11:44:31.795Z,7.96
2018-12-08T11:47:02.617Z,7.96
2018-12-08T11:49:35.210Z,8.06
2018-12-08T11:52:06.567Z,8.16
2018-12-08T11:54:37.265Z,8.16
2018-12-08T11:57:07.737Z,8.21
2018-12-08T11:59:38.286Z,8.15
2018-12-08T12:02:16.306Z,8.11
2018-12-08T12:04:42.572Z,8.23
2018-12-08T12:07:12.799Z,8.32
2018-12-08T12:09:46.670Z,8.21
2018-12-08T12:12:16.795Z,8.27
2018-12-08T12:14:50.304Z,8.31
2018-12-08T12:17:20.737Z,8.29
2018-12-08T12:19:50.673Z,8.24
2018-12-08T12:22:22.632Z,8.32
2018-12-08T12:24:54.828Z,8.25
2018-12-08T12:27:25.823Z,8.18
2018-12-08T12:29:55.821Z,8.15
2018-12-08T12:32:27.105Z,8.11
2018-12-08T12:34:59.914Z,8.11
2018-12-08T12:37:30.872Z,8.18
2018-12-08T12:40:08.019Z,8.17
2018-12-08T12:42:39.053Z,8.23
2018-12-08T12:45:12.052Z,8.27
2018-12-08T12:47:44.937Z,8.27
2018-12-08T12:50:16.013Z,8.43
2018-12-08T12:52:46.137Z,8.41
2018-12-08T12:55:17.408Z,8.35
2018-12-08T12:57:47.928Z,8.44
2018-12-08T13:00:18.901Z,8.33
2018-12-08T13:02:49.621Z,8.30
2018-12-08T13:05:19.987Z,8.28
2018-12-08T13:07:53.097Z,8.28
2018-12-08T13:10:26.066Z,8.22
2018-12-08T13:13:00.021Z,8.18
2018-12-08T13:15:30.237Z,8.17
2018-12-08T13:18:03.837Z,8.18
2018-12-08T13:20:33.907Z,8.15
2018-12-08T13:23:04.958Z,8.12
2018-12-08T13:25:35.128Z,8.11
2018-12-08T13:28:06.159Z,8.08
2018-12-08T13:30:41.954Z,8.08
2018-12-08T13:33:12.980Z,8.05
2018-12-08T13:35:53.519Z,8.07
2018-12-08T13:38:28.745Z,8.07
2018-12-08T13:41:00.150Z,8.09
2018-12-08T13:43:31.334Z,8.16
2018-12-08T13:46:04.712Z,8.23
2018-12-08T13:48:35.590Z,8.24
2018-12-08T13:51:05.853Z,8.23
2018-12-08T13:53:36.938Z,8.22
2018-12-08T13:56:07.347Z,8.18
2018-12-08T13:58:37.904Z,8.15
2018-12-08T14:01:11.095Z,8.13
2018-12-08T14:03:42.260Z,8.16
2018-12-08T14:06:13.809Z,8.19
2018-12-08T14:08:46.559Z,8.17
2018-12-08T14:11:17.184Z,8.15
2018-12-08T14:13:48.177Z,8.11
2018-12-08T14:16:19.667Z,8.07
2018-12-08T14:18:52.320Z,8.05
2018-12-08T14:21:22.441Z,8.03
2018-12-08T14:23:53.371Z,8.01
2018-12-08T14:26:23.591Z,8.01
2018-12-08T14:28:54.447Z,7.97
2018-12-08T14:31:27.663Z,7.92
2018-12-08T14:34:00.694Z,7.90
2018-12-08T14:36:32.209Z,7.87
2018-12-08T14:39:02.637Z,7.82
2018-12-08T14:41:33.346Z,7.80
2018-12-08T14:44:03.876Z,7.76
2018-12-08T14:46:34.582Z,7.71
2018-12-08T14:49:04.754Z,7.68
2018-12-08T14:51:35.599Z,7.65
2018-12-08T14:54:06.727Z,7.67
2018-12-08T14:56:37.066Z,7.71
2018-12-08T14:59:08.139Z,7.73
2018-12-08T15:01:38.485Z,7.74
2018-12-08T15:04:08.526Z,7.75
2018-12-08T15:06:38.707Z,7.89
2018-12-08T15:09:09.077Z,7.82
2018-12-08T15:11:41.538Z,7.77
2018-12-08T15:14:11.716Z,7.72
2018-12-08T15:16:44.464Z,7.74
2018-12-08T15:19:16.707Z,7.71
2018-12-08T15:21:53.560Z,7.72
2018-12-08T15:24:30.210Z,7.72
2018-12-08T15:27:03.347Z,7.72
2018-12-08T15:29:34.541Z,7.72
2018-12-08T15:32:07.617Z,7.71
2018-12-08T15:34:38.685Z,7.74
2018-12-08T15:37:09.747Z,7.89
2018-12-08T15:39:41.782Z,7.97
2018-12-08T15:42:18.820Z,8.20
2018-12-08T15:44:50.063Z,8.35
2018-12-08T15:47:20.737Z,8.34
2018-12-08T15:49:50.959Z,8.27
2018-12-08T15:52:27.676Z,7.84
2018-12-08T15:54:58.648Z,8.21
2018-12-08T15:57:28.932Z,8.25
2018-12-08T15:59:59.970Z,8.24
2018-12-08T16:02:30.472Z,8.34
2018-12-08T16:05:02.690Z,8.19
2018-12-08T16:07:34.819Z,8.07
2018-12-08T16:10:09.167Z,8.02
2018-12-08T16:12:42.354Z,7.96
2018-12-08T16:15:12.606Z,7.94
2018-12-08T16:17:43.267Z,7.91
2018-12-08T16:20:14.562Z,7.87
2018-12-08T16:22:44.864Z,7.86
2018-12-08T16:25:15.775Z,7.81
2018-12-08T16:27:46.367Z,7.75
2018-12-08T16:30:16.763Z,7.69
2018-12-08T16:32:50.560Z,7.63
2018-12-08T16:35:21.946Z,7.57
2018-12-08T16:37:56.952Z,7.50
2018-12-08T16:40:26.241Z,7.44
2018-12-08T16:42:58.846Z,7.38
2018-12-08T16:45:28.928Z,7.31
2018-12-08T16:47:59.801Z,7.23
2018-12-08T16:50:30.642Z,7.20
2018-12-08T16:53:00.872Z,7.17
2018-12-08T16:55:31.963Z,7.59
2018-12-08T16:58:03.100Z,8.06
2018-12-08T17:00:35.398Z,8.07
2018-12-08T17:03:07.087Z,8.15
2018-12-08T17:05:39.132Z,8.07
2018-12-08T17:08:10.985Z,8.05
2018-12-08T17:10:41.675Z,8.07
2018-12-08T17:13:12.129Z,7.94
2018-12-08T17:15:42.760Z,7.92
2018-12-08T17:18:13.039Z,7.94
2018-12-08T17:20:47.028Z,7.83
2018-12-08T17:23:18.051Z,7.75
2018-12-08T17:25:48.101Z,7.71
2018-12-08T17:28:19.114Z,7.69
2018-12-08T17:30:50.126Z,7.64
2018-12-08T17:33:20.233Z,7.59
2018-12-08T17:35:57.195Z,7.55
2018-12-08T17:38:28.255Z,7.55
2018-12-08T17:40:59.271Z,7.60
2018-12-08T17:43:30.685Z,7.64
2018-12-08T17:46:01.216Z,7.60
2018-12-08T17:48:31.916Z,7.58
2018-12-08T17:51:02.283Z,7.53
2018-12-08T17:53:35.330Z,7.49
2018-12-08T17:56:08.309Z,7.51
2018-12-08T17:58:39.204Z,7.52
2018-12-08T18:01:09.212Z,7.55
2018-12-08T18:03:39.274Z,7.64
2018-12-08T18:06:10.467Z,7.65
2018-12-08T18:08:41.858Z,7.69
2018-12-08T18:11:12.266Z,7.70
2018-12-08T18:13:42.406Z,7.73
2018-12-08T18:16:19.372Z,7.84
2018-12-08T18:18:50.197Z,8.07
2018-12-08T18:21:21.314Z,8.14
2018-12-08T18:23:51.646Z,8.11
2018-12-08T18:26:22.495Z,8.21
2018-12-08T18:29:01.253Z,8.23
2018-12-08T18:31:32.318Z,8.24
2018-12-08T18:34:03.342Z,8.31
2018-12-08T18:36:39.253Z,8.12
2018-12-08T18:39:10.314Z,8.02
2018-12-08T18:41:42.710Z,7.89
2018-12-08T18:44:15.296Z,7.80
2018-12-08T18:46:46.669Z,7.87
2018-12-08T18:49:23.082Z,7.74
2018-12-08T18:51:53.842Z,7.65
2018-12-08T18:54:24.499Z,7.62
2018-12-08T18:56:55.142Z,7.56
2018-12-08T18:59:25.525Z,7.49
2018-12-08T19:01:59.411Z,7.46
2018-12-08T19:04:29.550Z,7.46
2018-12-08T19:07:00.464Z,7.55
2018-12-08T19:09:30.717Z,7.59
2018-12-08T19:12:02.666Z,7.59
2018-12-08T19:14:35.571Z,7.59
2018-12-08T19:17:06.523Z,7.56
2018-12-08T19:19:38.663Z,7.56
2018-12-08T19:22:15.540Z,7.55
2018-12-08T19:24:46.808Z,7.52
2018-12-08T19:27:17.571Z,7.50
2018-12-08T19:29:47.567Z,7.48
2018-12-08T19:32:18.875Z,7.46
2018-12-08T19:34:49.637Z,7.48
2018-12-08T19:37:20.188Z,7.48
2018-12-08T19:39:50.742Z,7.49
2018-12-08T19:42:21.928Z,7.46
2018-12-08T19:44:52.391Z,7.45
2018-12-08T19:47:22.842Z,7.49
2018-12-08T19:49:53.816Z,7.51
2018-12-08T19:52:24.713Z,7.55
2018-12-08T19:54:56.052Z,7.62
2018-12-08T19:57:26.317Z,7.69
2018-12-08T19:59:57.063Z,7.74
2018-12-08T20:02:27.780Z,7.72
2018-12-08T20:04:58.156Z,7.81
2018-12-08T20:07:28.645Z,7.80
2018-12-08T20:09:59.105Z,7.72
2018-12-08T20:12:29.808Z,7.66
2018-12-08T20:14:59.993Z,7.66
2018-12-08T20:17:30.993Z,7.71
2018-12-08T20:20:01.224Z,7.79
2018-12-08T20:22:31.848Z,7.76
2018-12-08T20:25:01.933Z,7.74
2018-12-08T20:27:36.011Z,7.70
2018-12-08T20:30:09.668Z,7.71
2018-12-08T20:32:42.040Z,7.68
2018-12-08T20:35:18.761Z,7.65
2018-12-08T20:37:50.073Z,7.66
2018-12-08T20:40:20.848Z,7.65
2018-12-08T20:42:51.554Z,7.65
2018-12-08T20:45:21.957Z,7.60
2018-12-08T20:47:52.666Z,7.59
2018-12-08T20:50:23.599Z,7.58
2018-12-08T20:52:54.175Z,7.58
2018-12-08T20:55:27.572Z,7.63
2018-12-08T20:57:58.271Z,7.55
2018-12-08T21:00:29.079Z,7.51
2018-12-08T21:03:06.169Z,7.49
2018-12-08T21:05:36.313Z,7.47
2018-12-08T21:08:12.982Z,7.43
2018-12-08T21:10:43.888Z,7.41
2018-12-08T21:13:14.156Z,7.39
2018-12-08T21:15:45.501Z,7.39
2018-12-08T21:18:16.007Z,7.36
2018-12-08T21:20:46.623Z,7.33
2018-12-08T21:23:17.033Z,7.27
2018-12-08T21:25:47.328Z,7.28
2018-12-08T21:28:17.956Z,7.31
2018-12-08T21:30:48.238Z,7.32
2018-12-08T21:33:19.629Z,7.31
2018-12-08T21:35:49.643Z,7.28
2018-12-08T21:38:20.025Z,7.23
2018-12-08T21:40:50.636Z,7.17
2018-12-08T21:43:21.264Z,7.11
2018-12-08T21:45:51.911Z,7.06
2018-12-08T21:48:22.430Z,7.03
2018-12-08T21:50:53.060Z,7.00
2018-12-08T21:53:23.348Z,6.94
2018-12-08T21:55:54.311Z,6.89
2018-12-08T21:58:25.182Z,6.86
2018-12-08T22:00:55.245Z,6.82
2018-12-08T22:03:26.183Z,6.79
2018-12-08T22:05:56.246Z,6.78
2018-12-08T22:08:27.196Z,6.76
2018-12-08T22:10:58.371Z,6.76
2018-12-08T22:13:35.222Z,6.74
2018-12-08T22:16:06.407Z,6.76
2018-12-08T22:18:36.382Z,6.74
2018-12-08T22:21:06.480Z,6.71
2018-12-08T22:23:36.452Z,6.65
2018-12-08T22:26:07.739Z,6.61
2018-12-08T22:28:39.974Z,6.60
2018-12-08T22:36:17.317Z,6.82
2018-12-08T22:38:49.488Z,6.90
2018-12-08T22:41:20.560Z,7.02
2018-12-08T22:43:50.511Z,7.27
2018-12-08T22:46:21.563Z,7.31
2018-12-08T22:48:52.787Z,7.29
2018-12-08T22:51:23.978Z,7.35
2018-12-08T22:53:54.337Z,7.36
2018-12-08T22:56:27.650Z,7.35
2018-12-08T22:58:59.579Z,7.45
2018-12-08T23:01:31.782Z,7.47
2018-12-08T23:04:03.510Z,7.50
2018-12-08T23:06:35.682Z,7.55
2018-12-08T23:09:07.964Z,7.57
2018-12-08T23:11:39.519Z,7.62
2018-12-08T23:14:09.559Z,7.65
2018-12-08T23:16:39.644Z,7.73
2018-12-08T23:19:10.652Z,7.76
2018-12-08T23:21:42.099Z,7.70
2018-12-08T23:24:12.111Z,7.62
2018-12-08T23:26:42.732Z,7.52
2018-12-08T23:29:12.771Z,7.52
2018-12-08T23:31:42.914Z,7.48
2018-12-08T23:34:14.668Z,7.48
2018-12-08T23:36:45.452Z,7.50
2018-12-08T23:39:15.824Z,7.49
2018-12-08T23:41:45.793Z,7.50
2018-12-08T23:44:16.653Z,7.49
2018-12-08T23:46:48.220Z,7.46
2018-12-08T23:49:18.943Z,7.42
2018-12-08T23:51:48.910Z,7.44
2018-12-08T23:54:18.966Z,7.38
2018-12-08T23:56:51.027Z,7.33
2018-12-08T23:59:27.620Z,7.38
